Airfield :
LOGIN :

Register | Disclaimer

   EN    FR    IT 

 










Legend :    VFR   Marginal VFR   IFR   Intensive IFR   Very Intensive IFR
Visi :
Ceiling :
>= 8 km
>= 3000ft
5 to 8 km
1000 to 3000 ft
1500m to 5 km
500 to 1000 ft
800 to 1500m
200 to 500 ft
< 800m
< 200 ft
Symbols :   Thunderstorms  Fog  Heavy snow  Heavy precipitations  Wind > 20 kt
SIGMETs :     Misc.  Thunderstorms  Icing  Turbulence  Mountain Waves  Volcanic Ashes







- Airport Elevation : 1768 ft


LEHC - Huesca Pirineos

CURRENT METAR :
  • 300030Z AUTO 36002KT 9999 NCD 10/07 Q1026

EXPIRED METARs :
  • 300000Z AUTO 36003KT 9999 NCD 10/07 Q1026
  • 292330Z AUTO VRB02KT 9999 NCD 09/07 Q1026
  • 292300Z AUTO 36001KT 9999 NCD 09/07 Q1026
  • 292230Z AUTO 03003KT 9999 NCD 11/08 Q1026
  • 292200Z AUTO 04001KT 9999 NCD 09/07 Q1026
  • 292130Z AUTO 01002KT 9999 NCD 12/08 Q1026

TAF TAF LEHC
Valid from the 29 at 09:00 until the 30 at 09:00 UTC


290800Z 2909/3009 05005KT 9999 FEW020 SCT040 TX20/2914Z TN09/3006Z
TEMPO 2912/2918 23006KT
No reported NOTAMs for that airfield.



MET'MAP, your aeronautical weather chart ! - Copyright ORBIFLY December 2007 - Disclaimer

ORBIFLY MET'MAP TEAM :

Programming & Development : Alexandra Zaïnal
Concept & Development : Baudouin d'Aumeries
Co-Development & Prog : Marc-Olivier Méhu
Technical & hardware support : Manuel Goepfert

Contact : metmap@orbifly.com




SOURCES & CREDITS :

   NOAA